Time;durP1;ratioP1;P1;durP2;ratioP2;P2;SDS_P1;SDS_P2;PMS_P1;PMS_P2;Temp;Humidity;BMP_temperature;BMP_pressure;BME280_temperature;BME280_humidity;BME280_pressure;Samples;Min_cycle;Max_cycle;Signal;HPM_P1;HPM_P2
2021/12/07 00:01:36;;;;;;;;;1.00;1.00;;;;;-147.17;100.00;50336.13;4916638;28;51451;-71
2021/12/07 00:04:02;;;;;;;;;3.00;3.00;;;;;-147.17;100.00;50344.00;4909897;28;51362;-73
2021/12/07 00:06:29;;;;;;;;;3.00;2.33;;;;;-147.17;100.00;50336.13;4912970;28;51098;-74
2021/12/07 00:08:56;;;;;;;;;3.00;2.00;;;;;-147.17;100.00;50316.44;4912981;28;50984;-72
2021/12/07 00:11:24;;;;;;;;;1.33;1.33;;;;;-147.17;100.00;50344.00;4914733;28;51079;-71
2021/12/07 00:13:49;;;;;;;;;2.00;1.00;;;;;-147.17;100.00;50344.00;4929389;28;51311;-71
2021/12/07 00:16:15;;;;;;;;;5.50;4.00;;;;;-147.17;100.00;50328.25;4926377;28;51170;-71
2021/12/07 00:18:40;;;;;;;;;6.00;3.00;;;;;-147.17;100.00;50312.53;4981820;28;51699;-72
2021/12/07 00:21:08;;;;;;;;;2.75;2.50;;;;;-147.17;100.00;50340.06;4994028;28;50975;-73
2021/12/07 00:23:34;;;;;;;;;5.50;4.00;;;;;-147.17;100.00;50340.06;4995426;28;51252;-72
2021/12/07 00:25:59;;;;;;;;;6.00;4.50;;;;;-147.17;100.00;50330.22;4940064;28;51853;-71
2021/12/07 00:28:24;;;;;;;;;2.33;1.00;;;;;-147.17;100.00;50347.94;4940922;28;50977;-74
2021/12/07 00:30:51;;;;;;;;;2.33;2.00;;;;;-147.17;100.00;50336.13;4913655;28;51294;-73
2021/12/07 00:35:50;;;;;;;;;2.33;2.00;;;;;-147.17;100.00;50340.06;4913309;28;50870;-72
2021/12/07 00:38:19;;;;;;;;;2.00;1.67;;;;;-147.17;100.00;50349.91;4913305;28;51308;-73
2021/12/07 00:40:45;;;;;;;;;1.00;1.00;;;;;-147.17;100.00;50357.78;4936917;28;51134;-73
2021/12/07 00:43:12;;;;;;;;;2.00;2.00;;;;;-147.17;100.00;50332.19;4968121;28;50860;-73
2021/12/07 00:45:39;;;;;;;;;2.67;2.00;;;;;-147.17;100.00;50357.78;4923643;28;51816;-71
2021/12/07 00:48:06;;;;;;;;;1.67;1.67;;;;;-147.17;100.00;50355.81;4913285;28;51098;-72
2021/12/07 00:50:33;;;;;;;;;1.00;1.00;;;;;-147.17;100.00;50355.81;4968810;28;51165;-72
2021/12/07 00:53:02;;;;;;;;;2.33;2.00;;;;;-147.17;100.00;50351.88;4924823;28;51077;-73
2021/12/07 00:55:31;;;;;;;;;0.00;0.00;;;;;-147.17;100.00;50359.75;4959687;28;51715;-72
2021/12/07 00:57:59;;;;;;;;;2.33;2.00;;;;;-147.17;100.00;50361.72;4994582;28;51065;-73
2021/12/07 01:00:26;;;;;;;;;1.00;1.00;;;;;-147.17;100.00;50383.38;4905053;28;51080;-71
2021/12/07 01:02:54;;;;;;;;;1.00;1.00;;;;;-147.17;100.00;50355.81;4912880;28;51050;-72
2021/12/07 01:05:26;;;;;;;;;1.00;1.00;;;;;-147.17;100.00;50357.78;4912864;28;52832;-71
2021/12/07 01:26:50;;;;;;;;;3.00;1.00;;;;;-147.17;100.00;50387.31;4913468;28;50885;-72
2021/12/07 01:29:19;;;;;;;;;0.00;0.00;;;;;-147.17;100.00;50377.47;4912071;28;51215;-72
2021/12/07 01:40:43;;;;;;;;;0.00;0.00;;;;;-147.17;100.00;50389.28;4926009;28;51263;-72
2021/12/07 01:45:47;;;;;;;;;0.00;0.00;;;;;-147.17;100.00;50399.13;4947196;28;52441;-70
2021/12/07 01:51:18;;;;;;;;;0.00;0.00;;;;;-147.17;100.00;50401.09;4949667;28;51014;-71
2021/12/07 02:01:55;;;;;;;;;0.00;0.00;;;;;-147.17;100.00;50410.94;4925890;28;51126;-71
2021/12/07 02:04:22;;;;;;;;;1.00;0.00;;;;;-147.17;100.00;50389.28;4925452;28;51126;-71
2021/12/07 02:06:47;;;;;;;;;0.33;0.33;;;;;-147.17;100.00;50407.00;4930720;28;51170;-72
2021/12/07 02:09:13;;;;;;;;;1.00;0.00;;;;;-147.17;100.00;50412.91;4993439;28;52052;-70
2021/12/07 02:11:46;;;;;;;;;0.00;0.00;;;;;-147.17;100.00;50407.00;4993861;28;50948;-72
2021/12/07 02:14:17;;;;;;;;;1.00;0.00;;;;;-147.17;100.00;50405.03;4945242;28;51040;-71
2021/12/07 02:16:48;;;;;;;;;0.00;0.00;;;;;-147.17;100.00;50359.75;4909603;28;51111;-72
2021/12/07 02:19:13;;;;;;;;;3.00;3.00;;;;;-147.17;100.00;50379.44;4912888;28;51944;-71
2021/12/07 02:21:39;;;;;;;;;1.00;0.00;;;;;-147.17;100.00;50397.16;4938931;28;51003;-72
2021/12/07 02:24:04;;;;;;;;;1.00;1.00;;;;;-147.17;100.00;50381.41;4952591;28;51151;-71
2021/12/07 02:26:30;;;;;;;;;2.00;1.00;;;;;-147.17;100.00;50391.25;4912318;28;51595;-71
2021/12/07 02:28:57;;;;;;;;;0.00;0.00;;;;;-147.17;100.00;50407.00;4912505;28;51601;-71
2021/12/07 02:31:23;;;;;;;;;0.67;0.00;;;;;-147.17;100.00;50393.22;4911390;28;51769;-71
2021/12/07 02:33:49;;;;;;;;;0.33;0.33;;;;;-147.17;100.00;50389.28;4905965;28;51019;-71
2021/12/07 02:36:14;;;;;;;;;1.00;0.00;;;;;-147.17;100.00;50379.44;4913436;28;50993;-73
2021/12/07 02:38:39;;;;;;;;;2.00;0.00;;;;;-147.17;100.00;50399.13;4912375;28;51964;-72
2021/12/07 02:41:05;;;;;;;;;0.00;0.00;;;;;-147.17;100.00;50371.56;4912999;28;51153;-71
2021/12/07 02:43:31;;;;;;;;;1.33;1.00;;;;;-147.17;100.00;50430.63;4912040;28;51056;-71
2021/12/07 02:45:56;;;;;;;;;0.00;0.00;;;;;-147.17;100.00;50385.34;4935675;28;51116;-71
2021/12/07 02:48:23;;;;;;;;;0.67;0.67;;;;;-147.17;100.00;50383.38;4912709;28;52427;-71
2021/12/07 02:50:50;;;;;;;;;0.00;0.00;;;;;-147.17;100.00;50403.06;4941573;28;51090;-71
2021/12/07 02:53:18;;;;;;;;;1.33;0.67;;;;;-147.17;100.00;50379.44;4985962;28;51044;-70
2021/12/07 02:55:44;;;;;;;;;2.00;0.00;;;;;-147.17;100.00;50383.38;4913481;28;50837;-71
2021/12/07 02:58:09;;;;;;;;;1.33;0.67;;;;;-147.17;100.00;50367.63;4914223;28;51688;-71
2021/12/07 03:00:43;;;;;;;;;0.00;0.00;;;;;-147.17;100.00;50375.50;4957861;28;51194;-72
2021/12/07 03:03:12;;;;;;;;;0.33;0.00;;;;;-147.17;100.00;50383.38;4996451;28;51129;-71
2021/12/07 03:27:54;;;;;;;;;0.67;0.00;;;;;-147.17;100.00;50365.66;4907436;28;51013;-71
2021/12/07 03:30:20;;;;;;;;;1.00;1.00;;;;;-147.17;100.00;50359.75;4913778;28;52106;-71
2021/12/07 03:32:45;;;;;;;;;2.00;1.25;;;;;-147.17;100.00;50359.75;4914350;28;51667;-71
2021/12/07 03:35:11;;;;;;;;;3.00;1.00;;;;;-147.17;100.00;50330.22;4965782;28;50995;-72
2021/12/07 03:37:37;;;;;;;;;0.75;0.75;;;;;-147.17;100.00;50344.00;4915473;28;51385;-71
2021/12/07 03:40:03;;;;;;;;;7.00;6.00;;;;;-147.17;100.00;50351.88;4920033;28;52802;-72
2021/12/07 03:42:28;;;;;;;;;10.75;10.75;;;;;-147.17;100.00;50351.88;4948856;28;51033;-71
2021/12/07 03:44:53;;;;;;;;;0.00;0.00;;;;;-147.17;100.00;50322.34;4925238;28;51583;-70
2021/12/07 03:47:19;;;;;;;;;1.67;0.33;;;;;-147.17;100.00;50320.38;4915270;28;51242;-71
2021/12/07 03:49:44;;;;;;;;;0.67;0.00;;;;;-147.17;100.00;50355.81;4913753;28;51016;-72
2021/12/07 03:52:10;;;;;;;;;2.00;0.33;;;;;-147.17;100.00;50336.13;4949057;28;50937;-71
2021/12/07 03:54:35;;;;;;;;;3.00;1.25;;;;;-147.17;100.00;50332.19;4933833;28;51270;-71
2021/12/07 03:57:00;;;;;;;;;1.00;0.00;;;;;-147.17;100.00;50353.84;4913885;28;51125;-70
2021/12/07 03:59:26;;;;;;;;;47.50;40.00;;;;;-147.17;100.00;50349.91;4943864;28;51650;-72
2021/12/07 04:01:52;;;;;;;;;1.00;1.00;;;;;-147.17;100.00;50387.31;4912846;28;50997;-72
2021/12/07 04:04:18;;;;;;;;;1.00;1.00;;;;;-147.17;100.00;50359.75;4949836;28;51131;-71
2021/12/07 04:06:44;;;;;;;;;1.00;0.75;;;;;-147.17;100.00;50367.63;4905671;28;50870;-71
2021/12/07 04:09:09;;;;;;;;;1.00;1.00;;;;;-147.17;100.00;50369.59;4911891;28;50984;-71
2021/12/07 04:11:35;;;;;;;;;1.00;1.00;;;;;-147.17;100.00;50340.06;4914885;28;50975;-71
2021/12/07 04:14:00;;;;;;;;;27.00;25.50;;;;;-147.17;100.00;50363.69;4914295;28;51112;-72
2021/12/07 04:16:26;;;;;;;;;2.00;1.00;;;;;-147.17;100.00;50355.81;4953345;28;51471;-71
2021/12/07 04:18:51;;;;;;;;;0.33;0.00;;;;;-147.17;100.00;50344.00;4978962;28;52314;-72
2021/12/07 04:21:17;;;;;;;;;0.00;0.00;;;;;-147.17;100.00;50345.97;4994371;28;50965;-71
2021/12/07 04:23:42;;;;;;;;;1.67;1.00;;;;;-147.17;100.00;50371.56;4923345;28;51141;-73
2021/12/07 04:26:10;;;;;;;;;0.67;0.00;;;;;-147.17;100.00;50373.53;4915230;28;51071;-71
2021/12/07 04:28:36;;;;;;;;;0.00;0.00;;;;;-147.17;100.00;50373.53;4913481;28;51054;-72
2021/12/07 04:31:03;;;;;;;;;0.00;0.00;;;;;-147.17;100.00;50351.88;4914371;28;51110;-72
2021/12/07 04:33:29;;;;;;;;;2.00;0.00;;;;;-147.17;100.00;50342.03;4926733;28;52703;-72
2021/12/07 04:35:55;;;;;;;;;0.75;0.00;;;;;-147.17;100.00;50355.81;4913983;28;50976;-71
2021/12/07 04:38:20;;;;;;;;;1.00;1.00;;;;;-147.17;100.00;50369.59;4981042;28;52105;-71
2021/12/07 04:40:47;;;;;;;;;0.00;0.00;;;;;-147.17;100.00;50387.31;4995204;28;51051;-72
2021/12/07 04:43:12;;;;;;;;;1.00;0.00;;;;;-147.17;100.00;50336.13;4985428;28;50940;-71
2021/12/07 04:58:58;;;;;;;;;0.00;0.00;;;;;-147.17;100.00;50336.13;4913600;28;51033;-71
2021/12/07 05:01:24;;;;;;;;;1.33;1.33;;;;;-147.17;100.00;50357.78;4914104;28;51051;-71
2021/12/07 05:03:51;;;;;;;;;2.50;1.75;;;;;-147.17;100.00;50347.94;4912394;28;51053;-71
2021/12/07 05:06:19;;;;;;;;;1.00;1.00;;;;;-147.17;100.00;50359.75;4900801;28;51160;-71
2021/12/07 05:08:48;;;;;;;;;3.00;2.00;;;;;-147.17;100.00;50344.00;4913454;28;51921;-72
2021/12/07 05:11:46;;;;;;;;;2.75;2.00;;;;;-147.17;100.00;50334.16;4913607;28;50857;-72
2021/12/07 05:14:26;;;;;;;;;3.50;2.25;;;;;-147.17;100.00;50351.88;4923016;28;50949;-72
2021/12/07 05:25:28;;;;;;;;;2.50;1.50;;;;;-147.17;100.00;50351.88;4913821;28;51043;-72
2021/12/07 05:38:47;;;;;;;;;2.33;2.00;;;;;-147.17;100.00;50345.97;4912387;28;51174;-72
2021/12/07 05:41:12;;;;;;;;;3.00;2.00;;;;;-147.17;100.00;50312.53;4913137;28;50961;-71
2021/12/07 05:43:38;;;;;;;;;2.00;2.00;;;;;-147.17;100.00;50353.84;4911781;28;51177;-71
2021/12/07 05:46:04;;;;;;;;;1.25;1.25;;;;;-147.17;100.00;50308.59;4913530;28;51098;-71
2021/12/07 05:48:29;;;;;;;;;2.00;1.00;;;;;-147.17;100.00;50320.38;4988055;28;51144;-72
2021/12/07 05:50:55;;;;;;;;;2.00;2.00;;;;;-147.17;100.00;50355.81;4936599;28;51973;-71
2021/12/07 05:53:21;;;;;;;;;1.00;1.00;;;;;-147.17;100.00;50326.28;4965251;28;51143;-71
2021/12/07 05:55:46;;;;;;;;;3.00;2.00;;;;;-147.17;100.00;50336.13;4913274;28;51303;-71
2021/12/07 05:58:12;;;;;;;;;6.50;3.25;;;;;-147.17;100.00;50326.28;4944740;28;51097;-70
2021/12/07 06:00:42;;;;;;;;;4.25;4.25;;;;;-147.17;100.00;50359.75;4912067;28;51697;-71
2021/12/07 06:03:09;;;;;;;;;5.00;3.00;;;;;-147.17;100.00;50310.56;4913437;28;51051;-71
2021/12/07 06:05:36;;;;;;;;;2.00;2.00;;;;;-147.17;100.00;50328.25;4912101;28;51699;-70
2021/12/07 06:08:02;;;;;;;;;3.50;3.00;;;;;-147.17;100.00;50298.75;4911721;28;50988;-71
2021/12/07 06:10:28;;;;;;;;;3.00;2.75;;;;;-147.17;100.00;50330.22;4911857;28;53553;-71
2021/12/07 06:12:54;;;;;;;;;5.75;5.00;;;;;-147.17;100.00;50284.97;4964621;28;51113;-71
2021/12/07 06:15:22;;;;;;;;;4.50;3.00;;;;;-147.17;100.00;50318.41;4981260;28;51275;-71
2021/12/07 06:17:48;;;;;;;;;3.00;2.50;;;;;-147.17;100.00;50296.78;4913020;28;50963;-71
2021/12/07 06:20:15;;;;;;;;;5.50;3.00;;;;;-147.17;100.00;50300.72;4936164;28;51791;-71
2021/12/07 06:22:40;;;;;;;;;5.25;4.00;;;;;-147.17;100.00;50318.41;4912165;28;51135;-70
2021/12/07 06:25:07;;;;;;;;;3.00;3.00;;;;;-147.17;100.00;50336.13;4935612;28;51083;-71
2021/12/07 06:27:32;;;;;;;;;7.25;5.00;;;;;-147.17;100.00;50328.25;4932704;28;51048;-70
2021/12/07 06:29:58;;;;;;;;;6.50;5.50;;;;;-147.17;100.00;50304.66;4941603;28;51205;-71
2021/12/07 06:32:24;;;;;;;;;9.75;9.75;;;;;-147.17;100.00;50340.06;4914133;28;51297;-70
2021/12/07 06:34:49;;;;;;;;;6.75;6.00;;;;;-147.17;100.00;50324.31;4968696;28;51237;-70
2021/12/07 06:37:15;;;;;;;;;7.50;7.50;;;;;-147.17;100.00;50281.03;4916028;28;51082;-72
2021/12/07 06:39:40;;;;;;;;;7.00;6.00;;;;;-147.17;100.00;50318.41;4914348;28;51727;-71
2021/12/07 06:42:06;;;;;;;;;6.75;6.75;;;;;-147.17;100.00;50302.69;4915390;28;51314;-72
2021/12/07 06:44:31;;;;;;;;;7.50;7.50;;;;;-147.17;100.00;50326.28;4915529;28;51802;-72
2021/12/07 06:46:57;;;;;;;;;6.00;5.00;;;;;-147.17;100.00;50300.72;4915755;28;50947;-71
2021/12/07 06:49:22;;;;;;;;;9.00;7.50;;;;;-147.17;100.00;50296.78;4913417;28;51778;-72
2021/12/07 06:51:51;;;;;;;;;10.00;7.00;;;;;-147.17;100.00;50328.25;4945596;28;51034;-72
2021/12/07 06:54:17;;;;;;;;;10.25;10.00;;;;;-147.17;100.00;50318.41;4960927;28;51210;-72
2021/12/07 06:56:42;;;;;;;;;12.00;11.00;;;;;-147.17;100.00;50306.63;4948107;28;51055;-71
2021/12/07 06:59:08;;;;;;;;;10.50;9.50;;;;;-147.17;100.00;50320.38;4996068;28;51869;-70
2021/12/07 07:01:34;;;;;;;;;8.25;7.75;;;;;-147.17;100.00;50292.84;4995437;28;51044;-70
2021/12/07 07:03:59;;;;;;;;;10.75;10.00;;;;;-147.17;100.00;50308.59;4996575;28;51029;-71
2021/12/07 07:06:25;;;;;;;;;14.50;12.00;;;;;-147.17;100.00;50304.66;4996370;28;50872;-71
2021/12/07 07:08:51;;;;;;;;;12.00;11.00;;;;;-147.17;100.00;50306.63;4996100;28;51139;-72
2021/12/07 07:11:19;;;;;;;;;11.50;10.75;;;;;-147.17;100.00;50320.38;4996379;28;51055;-72
2021/12/07 07:13:45;;;;;;;;;11.75;11.75;;;;;-147.17;100.00;50298.75;4989170;28;51123;-71
2021/12/07 07:16:12;;;;;;;;;12.00;11.75;;;;;-147.17;100.00;50316.44;4949206;28;51417;-70
2021/12/07 07:18:37;;;;;;;;;16.50;14.75;;;;;-147.17;100.00;50308.59;4994602;28;51928;-72
2021/12/07 07:21:04;;;;;;;;;16.75;16.00;;;;;-147.17;100.00;50318.41;4995771;28;51021;-66
2021/12/07 07:23:30;;;;;;;;;14.75;12.25;;;;;-147.17;100.00;50304.66;4922050;28;51058;-67
2021/12/07 07:25:56;;;;;;;;;19.75;15.75;;;;;-147.17;100.00;50284.97;4914983;28;51293;-66
2021/12/07 07:28:25;;;;;;;;;19.75;18.25;;;;;-147.17;100.00;50267.25;4914732;28;52163;-68
2021/12/07 07:30:51;;;;;;;;;17.25;14.75;;;;;-147.17;100.00;50281.03;4913028;28;50899;-67
2021/12/07 07:33:17;;;;;;;;;16.50;15.00;;;;;-147.17;100.00;50316.44;4914231;28;51304;-70
2021/12/07 07:35:43;;;;;;;;;16.75;15.00;;;;;-147.17;100.00;50257.41;4914741;28;51205;-68
2021/12/07 07:38:08;;;;;;;;;16.75;14.00;;;;;-147.17;100.00;50271.19;4926574;28;51118;-67
2021/12/07 07:40:33;;;;;;;;;13.50;13.50;;;;;-147.17;100.00;50298.75;4995119;28;50953;-68
2021/12/07 07:42:59;;;;;;;;;23.50;19.75;;;;;-147.17;100.00;50292.84;4994851;28;51030;-68
2021/12/07 07:45:25;;;;;;;;;22.00;19.50;;;;;-147.17;100.00;50275.13;4995007;28;51074;-67
2021/12/07 07:47:51;;;;;;;;;17.00;15.25;;;;;-147.17;100.00;50257.41;4995064;28;52169;-67
2021/12/07 07:50:16;;;;;;;;;21.00;18.25;;;;;-147.17;100.00;50277.09;4956337;28;52245;-67
2021/12/07 07:52:42;;;;;;;;;20.00;18.50;;;;;-147.17;100.00;50300.72;4914488;28;50940;-68
2021/12/07 07:55:09;;;;;;;;;18.75;16.25;;;;;-147.17;100.00;50261.34;4936540;28;51008;-67
2021/12/07 07:57:34;;;;;;;;;23.00;20.00;;;;;-147.17;100.00;50255.44;4994711;28;51718;-72
2021/12/07 08:00:00;;;;;;;;;18.25;16.75;;;;;-147.17;100.00;50283.00;4993553;28;50987;-67
2021/12/07 08:02:25;;;;;;;;;19.25;16.50;;;;;-147.17;100.00;50284.97;4996002;28;51080;-68
2021/12/07 08:04:51;;;;;;;;;20.75;17.25;;;;;-147.17;100.00;50308.59;4972468;28;51282;-67
2021/12/07 08:07:16;;;;;;;;;17.25;16.00;;;;;-147.17;100.00;50286.94;4911111;28;51907;-68
2021/12/07 08:09:42;;;;;;;;;16.25;14.25;;;;;-147.17;100.00;50257.41;4913811;28;50984;-67
2021/12/07 08:12:08;;;;;;;;;18.75;16.75;;;;;-147.17;100.00;50265.28;4914177;28;51172;-67
2021/12/07 08:14:34;;;;;;;;;14.75;13.75;;;;;-147.17;100.00;50284.97;4913913;28;51788;-67
2021/12/07 08:17:00;;;;;;;;;20.25;19.00;;;;;-147.17;100.00;50273.16;4914379;28;51203;-68
2021/12/07 08:19:25;;;;;;;;;17.25;17.25;;;;;-147.17;100.00;50265.28;4914374;28;50863;-68
2021/12/07 08:21:51;;;;;;;;;19.25;18.25;;;;;-147.17;100.00;50292.84;4913504;28;51132;-68
2021/12/07 08:24:16;;;;;;;;;15.25;12.25;;;;;-147.17;100.00;50283.00;4914145;28;51334;-68
2021/12/07 08:26:43;;;;;;;;;23.50;20.50;;;;;-147.17;100.00;50261.34;4913615;28;51922;-68
2021/12/07 08:29:08;;;;;;;;;21.50;18.25;;;;;-147.17;100.00;50296.78;4913293;28;51189;-68
2021/12/07 08:31:34;;;;;;;;;17.75;16.50;;;;;-147.17;100.00;50273.16;4913775;28;51079;-68
2021/12/07 08:34:00;;;;;;;;;16.50;16.25;;;;;-147.17;100.00;50267.25;4913937;28;51033;-68
2021/12/07 08:36:27;;;;;;;;;19.25;19.00;;;;;-147.17;100.00;50243.63;4913792;28;50946;-68
2021/12/07 08:38:52;;;;;;;;;19.25;19.00;;;;;-147.17;100.00;50265.28;4913875;28;51151;-67
2021/12/07 08:41:18;;;;;;;;;20.25;18.00;;;;;-147.17;100.00;50310.56;4913880;28;50982;-68
2021/12/07 08:43:43;;;;;;;;;24.75;20.75;;;;;-147.17;100.00;50265.28;4914162;28;50945;-67
2021/12/07 08:46:11;;;;;;;;;24.00;21.00;;;;;-147.17;100.00;50273.16;4914102;28;50937;-67
2021/12/07 08:48:36;;;;;;;;;26.75;24.25;;;;;-147.17;100.00;50273.16;4913921;28;51208;-67
2021/12/07 08:51:07;;;;;;;;;15.50;14.50;;;;;-147.17;100.00;50271.19;4913445;28;50967;-68
2021/12/07 08:53:35;;;;;;;;;17.50;17.50;;;;;-147.17;100.00;50284.97;4914039;28;51152;-68
2021/12/07 09:01:30;;;;;;;;;19.25;18.50;;;;;-147.17;100.00;50283.00;4913327;28;51115;-68
2021/12/07 09:03:57;;;;;;;;;15.75;13.25;;;;;-147.17;100.00;50292.84;4912003;28;51375;-69
2021/12/07 09:06:23;;;;;;;;;21.75;18.50;;;;;-147.17;100.00;50283.00;4913202;28;51026;-68
2021/12/07 09:08:49;;;;;;;;;18.75;14.75;;;;;-147.17;100.00;50300.72;4913272;28;51061;-67
2021/12/07 09:11:16;;;;;;;;;19.00;17.75;;;;;-147.17;100.00;50259.38;4913370;28;51114;-67
2021/12/07 09:13:42;;;;;;;;;21.75;19.25;;;;;-147.17;100.00;50292.84;4913536;28;50937;-67
2021/12/07 09:16:10;;;;;;;;;15.25;14.25;;;;;-147.17;100.00;50281.03;4913163;28;51906;-68
2021/12/07 09:18:36;;;;;;;;;18.75;18.50;;;;;-147.17;100.00;50275.13;4913371;28;51092;-69
2021/12/07 09:21:03;;;;;;;;;16.25;14.25;;;;;-147.17;100.00;50261.34;4913519;28;51242;-69
2021/12/07 09:23:29;;;;;;;;;15.25;14.00;;;;;-147.17;100.00;50273.16;4912413;28;50950;-67
2021/12/07 09:25:54;;;;;;;;;17.75;16.00;;;;;-147.17;100.00;50261.34;4911815;28;53209;-68
2021/12/07 09:28:20;;;;;;;;;17.25;15.25;;;;;-147.17;100.00;50247.56;4913458;28;51228;-68
2021/12/07 09:30:51;;;;;;;;;15.50;13.75;;;;;-147.17;100.00;50267.25;4912962;28;51040;-67
2021/12/07 09:33:21;;;;;;;;;16.75;14.75;;;;;-147.17;100.00;50267.25;4913542;28;51087;-67
2021/12/07 09:35:47;;;;;;;;;21.00;18.50;;;;;-147.17;100.00;50265.28;4911321;28;52955;-68
2021/12/07 09:38:13;;;;;;;;;18.00;16.75;;;;;-147.17;100.00;50241.66;4912985;28;50988;-67
2021/12/07 09:40:39;;;;;;;;;19.75;18.00;;;;;-147.17;100.00;50273.16;4913190;28;50952;-67
2021/12/07 09:43:05;;;;;;;;;12.00;10.75;;;;;-147.17;100.00;50253.47;4913270;28;51324;-67
2021/12/07 09:45:31;;;;;;;;;13.00;13.00;;;;;-147.17;100.00;50237.72;4911002;28;53946;-68
2021/12/07 09:48:00;;;;;;;;;9.75;7.00;;;;;-147.17;100.00;50227.88;4913143;28;51073;-67
2021/12/07 09:50:27;;;;;;;;;15.00;14.25;;;;;-147.17;100.00;50267.25;4910084;28;51419;-67
2021/12/07 09:52:53;;;;;;;;;9.00;6.75;;;;;-147.17;100.00;50237.72;4907971;28;51288;-66
2021/12/07 09:55:19;;;;;;;;;13.00;8.50;;;;;-147.17;100.00;50229.84;4938079;28;51821;-68
2021/12/07 09:57:46;;;;;;;;;14.75;12.75;;;;;-147.17;100.00;50247.56;4985596;28;50914;-68
2021/12/07 10:00:15;;;;;;;;;15.00;14.75;;;;;-147.17;100.00;50257.41;4900165;28;51104;-67
2021/12/07 10:02:41;;;;;;;;;16.00;13.75;;;;;-147.17;100.00;50245.59;4912734;28;51288;-68
2021/12/07 10:05:07;;;;;;;;;16.50;14.50;;;;;-147.17;100.00;50241.66;4912499;28;51728;-67
2021/12/07 10:07:33;;;;;;;;;15.00;14.00;;;;;-147.17;100.00;50225.91;4915555;28;51699;-67
2021/12/07 10:09:59;;;;;;;;;15.75;14.25;;;;;-147.17;100.00;50247.56;4900512;28;51120;-67
2021/12/07 10:12:26;;;;;;;;;17.25;14.50;;;;;-147.17;100.00;50229.84;4912743;28;51012;-67
2021/12/07 10:14:51;;;;;;;;;12.75;11.00;;;;;-147.17;100.00;50229.84;4913639;28;51958;-68
2021/12/07 10:17:21;;;;;;;;;15.00;13.75;;;;;-147.17;100.00;50233.78;4912362;28;50969;-67
2021/12/07 10:19:48;;;;;;;;;11.00;10.75;;;;;-147.17;100.00;50249.53;4912825;28;51121;-68
2021/12/07 10:22:19;;;;;;;;;16.25;14.75;;;;;-147.17;100.00;50210.16;4912726;28;51233;-67
2021/12/07 10:24:48;;;;;;;;;14.75;13.25;;;;;-147.17;100.00;50184.56;4912473;28;52704;-68
2021/12/07 10:27:36;;;;;;;;;10.75;10.75;;;;;-147.17;100.00;50218.03;4912255;28;51024;-67
2021/12/07 10:30:09;;;;;;;;;18.50;15.00;;;;;-147.17;100.00;50192.44;4912330;28;51075;-67
2021/12/07 10:32:39;;;;;;;;;14.25;12.00;;;;;-147.17;100.00;50223.94;4912245;28;51368;-68
2021/12/07 10:35:24;;;;;;;;;9.75;9.00;;;;;-147.17;100.00;50237.72;4910527;28;51853;-68
2021/12/07 10:38:25;;;;;;;;;18.25;15.25;;;;;-147.17;100.00;50223.94;4911349;28;50917;-68
2021/12/07 10:41:01;;;;;;;;;13.75;12.75;;;;;-147.17;100.00;50231.81;5009894;28;51271;-68
2021/12/07 10:44:04;;;;;;;;;16.00;14.25;;;;;-147.17;100.00;50221.97;4926170;28;51188;-68
2021/12/07 10:46:52;;;;;;;;;15.25;14.00;;;;;-147.17;100.00;50214.09;5009788;28;52034;-68
2021/12/07 10:49:54;;;;;;;;;17.75;16.00;;;;;-147.17;100.00;50245.59;4915769;28;51014;-67
2021/12/07 10:52:30;;;;;;;;;15.25;11.50;;;;;-147.17;100.00;50194.41;5006537;28;51000;-66
2021/12/07 10:55:05;;;;;;;;;18.50;14.50;;;;;-147.17;100.00;50200.31;4965767;28;51191;-69
2021/12/07 10:57:40;;;;;;;;;15.50;15.00;;;;;-147.17;100.00;50245.59;4991819;28;52625;-68
2021/12/07 11:00:20;;;;;;;;;15.00;15.00;;;;;-147.17;100.00;50212.13;4992252;28;51054;-69
2021/12/07 11:02:49;;;;;;;;;15.75;13.00;;;;;-147.17;100.00;50216.06;4900633;28;51065;-68
2021/12/07 11:05:40;;;;;;;;;18.50;15.75;;;;;-147.17;100.00;50194.41;4911956;28;50917;-69
2021/12/07 11:08:07;;;;;;;;;17.75;16.50;;;;;-147.17;100.00;50214.09;4910028;28;53098;-68
2021/12/07 11:10:38;;;;;;;;;22.50;18.00;;;;;-147.17;100.00;50190.47;4911464;28;51273;-68
2021/12/07 11:13:17;;;;;;;;;14.25;12.25;;;;;-147.17;100.00;50188.50;4910394;28;51147;-68
2021/12/07 11:15:53;;;;;;;;;15.00;13.50;;;;;-147.17;100.00;50239.69;4911371;28;50831;-68
2021/12/07 11:18:28;;;;;;;;;20.25;17.00;;;;;-147.17;100.00;50245.59;4976021;28;51838;-67
2021/12/07 11:20:57;;;;;;;;;11.50;11.50;;;;;-147.17;100.00;50194.41;4995022;28;51102;-68
2021/12/07 11:23:31;;;;;;;;;18.50;18.00;;;;;-147.17;100.00;50227.88;4995127;28;51111;-68
2021/12/07 11:31:35;;;;;;;;;13.00;12.50;;;;;-147.17;100.00;50237.72;4909944;28;50965;-67
2021/12/07 11:34:08;;;;;;;;;14.50;12.75;;;;;-147.17;100.00;50237.72;4914390;28;51057;-68
2021/12/07 11:36:40;;;;;;;;;13.00;13.00;;;;;-147.17;100.00;50233.78;4914273;28;50901;-68
2021/12/07 11:39:27;;;;;;;;;13.00;12.25;;;;;-147.17;100.00;50253.47;4913736;28;51861;-67
2021/12/07 11:42:12;;;;;;;;;11.25;11.25;;;;;-147.17;100.00;50235.75;4913384;28;51109;-68
2021/12/07 11:44:51;;;;;;;;;10.25;9.50;;;;;-147.17;100.00;50257.41;4902524;28;50960;-68
2021/12/07 11:47:24;;;;;;;;;15.00;13.00;;;;;-147.17;100.00;50233.78;4917786;28;51149;-68
2021/12/07 11:49:49;;;;;;;;;12.00;10.50;;;;;-147.17;100.00;50235.75;4913959;28;52637;-68
2021/12/07 11:52:14;;;;;;;;;14.50;14.00;;;;;-147.17;100.00;50233.78;4929331;28;51009;-69
2021/12/07 11:54:42;;;;;;;;;11.00;9.75;;;;;-147.17;100.00;50267.25;4913002;28;51183;-68
2021/12/07 11:57:12;;;;;;;;;10.50;9.75;;;;;-147.17;100.00;50239.69;4906027;28;51242;-68
2021/12/07 11:59:39;;;;;;;;;7.50;7.00;;;;;-147.17;100.00;50259.38;4915238;28;51730;-70
2021/12/07 12:02:04;;;;;;;;;10.50;9.00;;;;;-147.17;100.00;50253.47;4928411;28;51008;-68
2021/12/07 12:04:30;;;;;;;;;12.00;11.00;;;;;-147.17;100.00;50273.16;4914427;28;51028;-67
2021/12/07 12:06:57;;;;;;;;;10.75;7.00;;;;;-147.17;100.00;50277.09;4917955;28;51256;-67
2021/12/07 12:09:24;;;;;;;;;15.50;11.75;;;;;-147.17;100.00;50247.56;4912125;28;52244;-68
2021/12/07 12:12:36;;;;;;;;;12.50;9.25;;;;;-147.17;100.00;50263.31;4913754;28;51016;-68
2021/12/07 12:15:14;;;;;;;;;12.00;10.00;;;;;-147.17;100.00;50304.66;4911083;28;51197;-69
2021/12/07 12:18:19;;;;;;;;;13.00;12.00;;;;;-147.17;100.00;50283.00;4913411;28;51090;-68
2021/12/07 12:21:07;;;;;;;;;12.00;9.50;;;;;-147.17;100.00;50279.06;4913304;28;51848;-68
2021/12/07 12:23:42;;;;;;;;;10.75;8.50;;;;;-147.17;100.00;50300.72;4913509;28;51125;-69
2021/12/07 12:26:10;;;;;;;;;13.25;11.00;;;;;-147.17;100.00;50273.16;4911891;28;51022;-68
2021/12/07 12:28:38;;;;;;;;;10.25;8.00;;;;;-147.17;100.00;50261.34;4911531;28;51372;-67
2021/12/07 12:31:06;;;;;;;;;7.00;7.00;;;;;-147.17;100.00;50247.56;4912562;28;51991;-68
2021/12/07 12:34:13;;;;;;;;;8.75;7.25;;;;;-147.17;100.00;50275.13;4909886;28;51055;-68
2021/12/07 12:36:38;;;;;;;;;11.75;8.00;;;;;-147.17;100.00;50247.56;4897036;28;52250;-68
2021/12/07 12:39:07;;;;;;;;;12.75;11.75;;;;;-147.17;100.00;50292.84;4907539;28;51072;-67
2021/12/07 12:41:33;;;;;;;;;8.50;8.50;;;;;-147.17;100.00;50245.59;4906879;28;51987;-68
2021/12/07 12:44:07;;;;;;;;;12.25;11.00;;;;;-147.17;100.00;50251.50;4907588;28;51056;-68
2021/12/07 12:46:35;;;;;;;;;9.50;9.00;;;;;-147.17;100.00;50259.38;4912270;28;51012;-68
2021/12/07 12:49:05;;;;;;;;;8.50;7.50;;;;;-147.17;100.00;50271.19;4907539;28;51523;-67
2021/12/07 12:51:43;;;;;;;;;9.50;8.00;;;;;-147.17;100.00;50288.91;4909826;28;53762;-68
2021/12/07 12:54:09;;;;;;;;;9.25;8.00;;;;;-147.17;100.00;50271.19;4908103;28;51264;-68
2021/12/07 12:56:36;;;;;;;;;9.00;8.00;;;;;-147.17;100.00;50267.25;4904095;28;50975;-67
2021/12/07 12:59:06;;;;;;;;;7.25;6.75;;;;;-147.17;100.00;50288.91;4908178;28;51450;-67